sensor_id;sensor_type;location;lat;lon;timestamp;temperature;humidity
39315;DHT22;28703;44.412;11.918;2023-07-31T00:01:48;27.60;96.80
39315;DHT22;28703;44.412;11.918;2023-07-31T00:04:14;27.50;96.80
39315;DHT22;28703;44.412;11.918;2023-07-31T00:06:40;27.50;96.80
39315;DHT22;28703;44.412;11.918;2023-07-31T00:09:06;27.50;96.90
39315;DHT22;28703;44.412;11.918;2023-07-31T00:11:32;27.50;96.90
39315;DHT22;28703;44.412;11.918;2023-07-31T00:13:58;27.50;97.00
39315;DHT22;28703;44.412;11.918;2023-07-31T00:16:25;27.40;97.10
39315;DHT22;28703;44.412;11.918;2023-07-31T00:18:51;27.40;97.10
39315;DHT22;28703;44.412;11.918;2023-07-31T00:21:18;27.30;97.20
39315;DHT22;28703;44.412;11.918;2023-07-31T00:23:44;27.30;97.30
39315;DHT22;28703;44.412;11.918;2023-07-31T00:26:09;27.30;97.30
39315;DHT22;28703;44.412;11.918;2023-07-31T00:28:35;27.30;97.30
39315;DHT22;28703;44.412;11.918;2023-07-31T00:31:01;27.30;97.70
39315;DHT22;28703;44.412;11.918;2023-07-31T00:33:30;27.20;97.40
39315;DHT22;28703;44.412;11.918;2023-07-31T00:35:56;27.20;97.40
39315;DHT22;28703;44.412;11.918;2023-07-31T00:38:22;27.20;97.40
39315;DHT22;28703;44.412;11.918;2023-07-31T00:40:48;27.10;97.40
39315;DHT22;28703;44.412;11.918;2023-07-31T00:43:14;27.10;97.40
39315;DHT22;28703;44.412;11.918;2023-07-31T00:45:40;27.20;97.50
39315;DHT22;28703;44.412;11.918;2023-07-31T00:48:06;27.10;97.50
39315;DHT22;28703;44.412;11.918;2023-07-31T00:50:34;27.10;97.50
39315;DHT22;28703;44.412;11.918;2023-07-31T00:53:00;27.10;97.60
39315;DHT22;28703;44.412;11.918;2023-07-31T00:55:26;27.10;97.60
39315;DHT22;28703;44.412;11.918;2023-07-31T00:57:52;27.00;97.60
39315;DHT22;28703;44.412;11.918;2023-07-31T01:00:21;27.00;97.60
39315;DHT22;28703;44.412;11.918;2023-07-31T01:02:50;27.00;97.70
39315;DHT22;28703;44.412;11.918;2023-07-31T01:05:20;26.90;97.70
39315;DHT22;28703;44.412;11.918;2023-07-31T01:08:18;26.90;97.70
39315;DHT22;28703;44.412;11.918;2023-07-31T01:10:49;26.90;97.70
39315;DHT22;28703;44.412;11.918;2023-07-31T01:13:18;26.90;97.80
39315;DHT22;28703;44.412;11.918;2023-07-31T01:15:44;26.80;97.80
39315;DHT22;28703;44.412;11.918;2023-07-31T01:18:10;26.80;97.80
39315;DHT22;28703;44.412;11.918;2023-07-31T01:20:37;26.80;98.10
39315;DHT22;28703;44.412;11.918;2023-07-31T01:26:12;26.80;97.90
39315;DHT22;28703;44.412;11.918;2023-07-31T01:28:55;26.70;98.00
39315;DHT22;28703;44.412;11.918;2023-07-31T01:31:24;26.70;98.00
39315;DHT22;28703;44.412;11.918;2023-07-31T01:33:53;26.60;98.00
39315;DHT22;28703;44.412;11.918;2023-07-31T01:36:20;26.60;98.00
39315;DHT22;28703;44.412;11.918;2023-07-31T01:38:47;26.60;98.10
39315;DHT22;28703;44.412;11.918;2023-07-31T01:41:13;26.60;98.10
39315;DHT22;28703;44.412;11.918;2023-07-31T01:43:42;26.60;98.10
39315;DHT22;28703;44.412;11.918;2023-07-31T01:46:08;26.50;98.00
39315;DHT22;28703;44.412;11.918;2023-07-31T01:48:34;26.50;98.00
39315;DHT22;28703;44.412;11.918;2023-07-31T01:51:02;26.50;98.00
39315;DHT22;28703;44.412;11.918;2023-07-31T01:53:30;26.50;98.10
39315;DHT22;28703;44.412;11.918;2023-07-31T01:55:56;26.40;98.10
39315;DHT22;28703;44.412;11.918;2023-07-31T01:58:22;26.40;98.20
39315;DHT22;28703;44.412;11.918;2023-07-31T02:00:48;26.40;98.30
39315;DHT22;28703;44.412;11.918;2023-07-31T02:03:15;26.30;98.30
39315;DHT22;28703;44.412;11.918;2023-07-31T02:05:45;26.30;98.30
39315;DHT22;28703;44.412;11.918;2023-07-31T02:08:12;26.30;98.40
39315;DHT22;28703;44.412;11.918;2023-07-31T02:10:38;26.30;98.40
39315;DHT22;28703;44.412;11.918;2023-07-31T02:13:04;26.30;98.50
39315;DHT22;28703;44.412;11.918;2023-07-31T02:15:31;26.20;98.50
39315;DHT22;28703;44.412;11.918;2023-07-31T02:17:58;26.20;98.60
39315;DHT22;28703;44.412;11.918;2023-07-31T02:20:28;26.20;98.60
39315;DHT22;28703;44.412;11.918;2023-07-31T02:22:54;26.20;98.60
39315;DHT22;28703;44.412;11.918;2023-07-31T02:25:21;26.20;98.60
39315;DHT22;28703;44.412;11.918;2023-07-31T02:27:47;26.20;98.60
39315;DHT22;28703;44.412;11.918;2023-07-31T02:30:15;26.20;98.70
39315;DHT22;28703;44.412;11.918;2023-07-31T02:32:41;26.20;98.70
39315;DHT22;28703;44.412;11.918;2023-07-31T02:35:10;26.10;98.70
39315;DHT22;28703;44.412;11.918;2023-07-31T02:37:41;26.10;98.70
39315;DHT22;28703;44.412;11.918;2023-07-31T02:40:08;26.10;98.80
39315;DHT22;28703;44.412;11.918;2023-07-31T02:42:35;26.10;98.80
39315;DHT22;28703;44.412;11.918;2023-07-31T02:45:01;26.10;98.80
39315;DHT22;28703;44.412;11.918;2023-07-31T02:47:27;26.00;98.80
39315;DHT22;28703;44.412;11.918;2023-07-31T02:49:54;26.00;98.70
39315;DHT22;28703;44.412;11.918;2023-07-31T02:52:21;26.00;98.60
39315;DHT22;28703;44.412;11.918;2023-07-31T02:54:47;26.00;98.50
39315;DHT22;28703;44.412;11.918;2023-07-31T02:57:14;25.90;98.40
39315;DHT22;28703;44.412;11.918;2023-07-31T02:59:40;25.90;98.40
39315;DHT22;28703;44.412;11.918;2023-07-31T03:02:07;25.90;98.50
39315;DHT22;28703;44.412;11.918;2023-07-31T03:04:36;25.80;98.50
39315;DHT22;28703;44.412;11.918;2023-07-31T03:07:05;25.80;98.50
39315;DHT22;28703;44.412;11.918;2023-07-31T03:09:31;25.70;98.60
39315;DHT22;28703;44.412;11.918;2023-07-31T03:12:00;25.80;98.70
39315;DHT22;28703;44.412;11.918;2023-07-31T03:14:29;25.70;98.70
39315;DHT22;28703;44.412;11.918;2023-07-31T03:16:55;25.70;98.70
39315;DHT22;28703;44.412;11.918;2023-07-31T03:19:24;25.70;98.70
39315;DHT22;28703;44.412;11.918;2023-07-31T03:21:51;25.70;98.80
39315;DHT22;28703;44.412;11.918;2023-07-31T03:24:18;25.60;98.80
39315;DHT22;28703;44.412;11.918;2023-07-31T03:26:48;25.60;98.90
39315;DHT22;28703;44.412;11.918;2023-07-31T03:29:15;25.60;98.90
39315;DHT22;28703;44.412;11.918;2023-07-31T03:31:41;25.50;98.80
39315;DHT22;28703;44.412;11.918;2023-07-31T03:34:07;25.50;98.80
39315;DHT22;28703;44.412;11.918;2023-07-31T03:39:02;25.50;98.70
39315;DHT22;28703;44.412;11.918;2023-07-31T03:41:30;25.50;98.70
39315;DHT22;28703;44.412;11.918;2023-07-31T03:43:56;25.40;98.60
39315;DHT22;28703;44.412;11.918;2023-07-31T03:46:22;25.40;98.50
39315;DHT22;28703;44.412;11.918;2023-07-31T03:48:49;25.40;98.50
39315;DHT22;28703;44.412;11.918;2023-07-31T03:51:15;25.40;98.50
39315;DHT22;28703;44.412;11.918;2023-07-31T03:53:42;25.40;98.60
39315;DHT22;28703;44.412;11.918;2023-07-31T03:56:08;25.40;98.70
39315;DHT22;28703;44.412;11.918;2023-07-31T03:58:34;25.40;99.00
39315;DHT22;28703;44.412;11.918;2023-07-31T04:01:01;25.40;99.20
39315;DHT22;28703;44.412;11.918;2023-07-31T04:03:27;25.40;99.30
39315;DHT22;28703;44.412;11.918;2023-07-31T04:05:55;25.40;99.50
39315;DHT22;28703;44.412;11.918;2023-07-31T04:08:24;25.40;99.70
39315;DHT22;28703;44.412;11.918;2023-07-31T04:10:50;25.40;99.80
39315;DHT22;28703;44.412;11.918;2023-07-31T04:13:16;25.40;99.90
39315;DHT22;28703;44.412;11.918;2023-07-31T04:15:42;25.40;99.90
39315;DHT22;28703;44.412;11.918;2023-07-31T04:18:08;25.40;99.90
39315;DHT22;28703;44.412;11.918;2023-07-31T04:20:34;25.50;99.90
39315;DHT22;28703;44.412;11.918;2023-07-31T04:23:00;25.40;99.90
39315;DHT22;28703;44.412;11.918;2023-07-31T04:25:25;25.50;99.80
39315;DHT22;28703;44.412;11.918;2023-07-31T04:27:51;25.40;99.40
39315;DHT22;28703;44.412;11.918;2023-07-31T04:30:17;25.50;99.20
39315;DHT22;28703;44.412;11.918;2023-07-31T04:32:43;25.40;99.00
39315;DHT22;28703;44.412;11.918;2023-07-31T04:35:10;25.40;98.70
39315;DHT22;28703;44.412;11.918;2023-07-31T04:37:36;25.40;98.40
39315;DHT22;28703;44.412;11.918;2023-07-31T04:40:01;25.40;98.20
39315;DHT22;28703;44.412;11.918;2023-07-31T04:42:28;25.40;98.10
39315;DHT22;28703;44.412;11.918;2023-07-31T04:44:54;25.40;97.90
39315;DHT22;28703;44.412;11.918;2023-07-31T04:47:20;25.40;97.90
39315;DHT22;28703;44.412;11.918;2023-07-31T04:49:46;25.40;97.80
39315;DHT22;28703;44.412;11.918;2023-07-31T04:52:11;25.40;97.80
39315;DHT22;28703;44.412;11.918;2023-07-31T04:54:37;25.30;97.80
39315;DHT22;28703;44.412;11.918;2023-07-31T04:57:04;25.30;97.80
39315;DHT22;28703;44.412;11.918;2023-07-31T04:59:30;25.40;97.90
39315;DHT22;28703;44.412;11.918;2023-07-31T05:01:57;25.30;97.90
39315;DHT22;28703;44.412;11.918;2023-07-31T05:04:23;25.40;98.00
39315;DHT22;28703;44.412;11.918;2023-07-31T05:06:48;25.30;98.00
39315;DHT22;28703;44.412;11.918;2023-07-31T05:09:14;25.40;97.90
39315;DHT22;28703;44.412;11.918;2023-07-31T05:11:40;25.40;97.90
39315;DHT22;28703;44.412;11.918;2023-07-31T05:14:09;25.40;97.90
39315;DHT22;28703;44.412;11.918;2023-07-31T05:16:35;25.40;97.90
39315;DHT22;28703;44.412;11.918;2023-07-31T05:19:00;25.40;97.90
39315;DHT22;28703;44.412;11.918;2023-07-31T05:21:26;25.40;98.00
39315;DHT22;28703;44.412;11.918;2023-07-31T05:23:53;25.50;98.00
39315;DHT22;28703;44.412;11.918;2023-07-31T05:26:19;25.50;98.00
39315;DHT22;28703;44.412;11.918;2023-07-31T05:28:45;25.50;97.90
39315;DHT22;28703;44.412;11.918;2023-07-31T05:31:11;25.50;97.90
39315;DHT22;28703;44.412;11.918;2023-07-31T05:33:37;25.50;97.80
39315;DHT22;28703;44.412;11.918;2023-07-31T05:36:02;25.50;97.80
39315;DHT22;28703;44.412;11.918;2023-07-31T05:38:28;25.50;97.80
39315;DHT22;28703;44.412;11.918;2023-07-31T05:40:55;25.50;97.80
39315;DHT22;28703;44.412;11.918;2023-07-31T05:43:21;25.60;98.00
39315;DHT22;28703;44.412;11.918;2023-07-31T05:45:47;25.60;98.10
39315;DHT22;28703;44.412;11.918;2023-07-31T05:48:13;25.60;98.20
39315;DHT22;28703;44.412;11.918;2023-07-31T05:50:39;25.70;98.30
39315;DHT22;28703;44.412;11.918;2023-07-31T05:53:06;25.70;98.40
39315;DHT22;28703;44.412;11.918;2023-07-31T05:55:33;25.70;98.50
39315;DHT22;28703;44.412;11.918;2023-07-31T05:57:59;25.70;98.60
39315;DHT22;28703;44.412;11.918;2023-07-31T06:00:25;25.80;98.70
39315;DHT22;28703;44.412;11.918;2023-07-31T06:02:51;25.80;98.80
39315;DHT22;28703;44.412;11.918;2023-07-31T06:05:17;25.90;98.90
39315;DHT22;28703;44.412;11.918;2023-07-31T06:07:43;25.90;99.00
39315;DHT22;28703;44.412;11.918;2023-07-31T06:10:09;26.00;99.20
39315;DHT22;28703;44.412;11.918;2023-07-31T06:12:35;26.00;99.20
39315;DHT22;28703;44.412;11.918;2023-07-31T06:15:02;26.00;99.40
39315;DHT22;28703;44.412;11.918;2023-07-31T06:17:29;26.00;99.50
39315;DHT22;28703;44.412;11.918;2023-07-31T06:19:56;26.00;99.50
39315;DHT22;28703;44.412;11.918;2023-07-31T06:22:22;26.00;99.60
39315;DHT22;28703;44.412;11.918;2023-07-31T06:24:49;26.00;99.70
39315;DHT22;28703;44.412;11.918;2023-07-31T06:27:14;26.00;99.90
39315;DHT22;28703;44.412;11.918;2023-07-31T06:29:41;26.00;99.90
39315;DHT22;28703;44.412;11.918;2023-07-31T06:32:08;26.10;99.90
39315;DHT22;28703;44.412;11.918;2023-07-31T06:34:34;26.10;99.90
39315;DHT22;28703;44.412;11.918;2023-07-31T06:36:59;26.10;99.90
39315;DHT22;28703;44.412;11.918;2023-07-31T06:39:25;26.20;99.90
39315;DHT22;28703;44.412;11.918;2023-07-31T06:41:51;26.20;99.90
39315;DHT22;28703;44.412;11.918;2023-07-31T06:44:17;26.30;99.90
39315;DHT22;28703;44.412;11.918;2023-07-31T06:46:43;26.30;99.90
39315;DHT22;28703;44.412;11.918;2023-07-31T06:49:09;26.40;99.90
39315;DHT22;28703;44.412;11.918;2023-07-31T06:51:34;26.40;99.90
39315;DHT22;28703;44.412;11.918;2023-07-31T06:54:01;26.50;99.90
39315;DHT22;28703;44.412;11.918;2023-07-31T06:56:28;26.60;99.90
39315;DHT22;28703;44.412;11.918;2023-07-31T06:58:55;26.60;99.90
39315;DHT22;28703;44.412;11.918;2023-07-31T07:01:21;26.70;99.90
39315;DHT22;28703;44.412;11.918;2023-07-31T07:03:47;26.70;99.90
39315;DHT22;28703;44.412;11.918;2023-07-31T07:06:16;26.80;99.90
39315;DHT22;28703;44.412;11.918;2023-07-31T07:08:43;26.90;99.90
39315;DHT22;28703;44.412;11.918;2023-07-31T07:11:09;27.00;99.90
39315;DHT22;28703;44.412;11.918;2023-07-31T07:13:35;27.10;99.90
39315;DHT22;28703;44.412;11.918;2023-07-31T07:16:01;27.10;99.90
39315;DHT22;28703;44.412;11.918;2023-07-31T07:18:27;27.20;99.90
39315;DHT22;28703;44.412;11.918;2023-07-31T07:20:54;27.20;99.90
39315;DHT22;28703;44.412;11.918;2023-07-31T07:23:20;27.30;99.90
39315;DHT22;28703;44.412;11.918;2023-07-31T07:25:47;27.30;99.90
39315;DHT22;28703;44.412;11.918;2023-07-31T07:28:15;27.40;99.90
39315;DHT22;28703;44.412;11.918;2023-07-31T07:30:41;27.50;99.90
39315;DHT22;28703;44.412;11.918;2023-07-31T07:33:07;27.50;99.90
39315;DHT22;28703;44.412;11.918;2023-07-31T07:35:34;27.60;99.90
39315;DHT22;28703;44.412;11.918;2023-07-31T07:38:01;27.70;99.90
39315;DHT22;28703;44.412;11.918;2023-07-31T07:40:27;27.80;99.90
39315;DHT22;28703;44.412;11.918;2023-07-31T07:42:53;27.80;99.90
39315;DHT22;28703;44.412;11.918;2023-07-31T07:45:19;27.90;99.90
39315;DHT22;28703;44.412;11.918;2023-07-31T07:47:45;27.90;99.90
39315;DHT22;28703;44.412;11.918;2023-07-31T07:50:11;28.00;99.90
39315;DHT22;28703;44.412;11.918;2023-07-31T07:52:36;28.00;99.90
39315;DHT22;28703;44.412;11.918;2023-07-31T07:55:03;28.10;99.90
39315;DHT22;28703;44.412;11.918;2023-07-31T07:57:29;28.10;99.90
39315;DHT22;28703;44.412;11.918;2023-07-31T07:59:55;28.20;99.90
39315;DHT22;28703;44.412;11.918;2023-07-31T08:02:22;28.20;99.90
39315;DHT22;28703;44.412;11.918;2023-07-31T08:04:48;28.20;99.80
39315;DHT22;28703;44.412;11.918;2023-07-31T08:07:14;28.30;99.70
39315;DHT22;28703;44.412;11.918;2023-07-31T08:09:40;28.30;99.70
39315;DHT22;28703;44.412;11.918;2023-07-31T08:12:07;28.40;99.60
39315;DHT22;28703;44.412;11.918;2023-07-31T08:14:33;28.40;99.50
39315;DHT22;28703;44.412;11.918;2023-07-31T08:16:59;28.50;99.60
39315;DHT22;28703;44.412;11.918;2023-07-31T08:19:25;28.60;99.60
39315;DHT22;28703;44.412;11.918;2023-07-31T08:21:51;28.60;99.60
39315;DHT22;28703;44.412;11.918;2023-07-31T08:24:17;28.70;99.40
39315;DHT22;28703;44.412;11.918;2023-07-31T08:26:43;28.70;99.40
39315;DHT22;28703;44.412;11.918;2023-07-31T08:29:09;28.80;99.20
39315;DHT22;28703;44.412;11.918;2023-07-31T08:31:35;28.90;99.10
39315;DHT22;28703;44.412;11.918;2023-07-31T08:34:01;28.90;99.00
39315;DHT22;28703;44.412;11.918;2023-07-31T08:36:27;28.90;98.70
39315;DHT22;28703;44.412;11.918;2023-07-31T08:38:53;28.90;98.30
39315;DHT22;28703;44.412;11.918;2023-07-31T08:41:19;29.00;98.10
39315;DHT22;28703;44.412;11.918;2023-07-31T08:43:49;29.00;97.80
39315;DHT22;28703;44.412;11.918;2023-07-31T08:46:15;29.10;97.60
39315;DHT22;28703;44.412;11.918;2023-07-31T08:48:44;29.10;97.50
39315;DHT22;28703;44.412;11.918;2023-07-31T08:51:14;29.20;97.70
39315;DHT22;28703;44.412;11.918;2023-07-31T08:53:40;29.20;97.60
39315;DHT22;28703;44.412;11.918;2023-07-31T08:56:06;29.30;97.40
39315;DHT22;28703;44.412;11.918;2023-07-31T08:58:33;29.30;97.30
39315;DHT22;28703;44.412;11.918;2023-07-31T09:01:02;29.40;97.30
39315;DHT22;28703;44.412;11.918;2023-07-31T09:03:31;29.30;97.10
39315;DHT22;28703;44.412;11.918;2023-07-31T09:05:59;29.40;97.00
39315;DHT22;28703;44.412;11.918;2023-07-31T09:08:26;29.40;96.90
39315;DHT22;28703;44.412;11.918;2023-07-31T09:11:00;29.40;96.70
39315;DHT22;28703;44.412;11.918;2023-07-31T09:13:29;29.50;96.60
39315;DHT22;28703;44.412;11.918;2023-07-31T09:15:55;29.50;96.50
39315;DHT22;28703;44.412;11.918;2023-07-31T09:18:21;29.60;96.60
39315;DHT22;28703;44.412;11.918;2023-07-31T09:21:05;29.60;96.60
39315;DHT22;28703;44.412;11.918;2023-07-31T09:23:41;29.70;96.20
39315;DHT22;28703;44.412;11.918;2023-07-31T09:26:08;29.70;96.10
39315;DHT22;28703;44.412;11.918;2023-07-31T09:28:34;29.80;96.00
39315;DHT22;28703;44.412;11.918;2023-07-31T09:31:00;29.80;95.70
39315;DHT22;28703;44.412;11.918;2023-07-31T09:33:25;29.80;95.40
39315;DHT22;28703;44.412;11.918;2023-07-31T09:35:51;29.80;95.40
39315;DHT22;28703;44.412;11.918;2023-07-31T09:38:18;29.80;95.10
39315;DHT22;28703;44.412;11.918;2023-07-31T09:40:48;29.80;94.90
39315;DHT22;28703;44.412;11.918;2023-07-31T09:43:19;29.80;94.70
39315;DHT22;28703;44.412;11.918;2023-07-31T09:45:46;29.80;94.60
39315;DHT22;28703;44.412;11.918;2023-07-31T09:48:17;29.80;94.60
39315;DHT22;28703;44.412;11.918;2023-07-31T09:50:46;29.80;94.60
39315;DHT22;28703;44.412;11.918;2023-07-31T09:53:12;29.90;94.70
39315;DHT22;28703;44.412;11.918;2023-07-31T09:55:40;29.90;94.70
39315;DHT22;28703;44.412;11.918;2023-07-31T09:58:11;29.90;94.80
39315;DHT22;28703;44.412;11.918;2023-07-31T10:00:37;30.00;94.60
39315;DHT22;28703;44.412;11.918;2023-07-31T10:03:10;30.00;94.60
39315;DHT22;28703;44.412;11.918;2023-07-31T10:05:38;30.10;94.90
39315;DHT22;28703;44.412;11.918;2023-07-31T10:08:07;30.20;95.00
39315;DHT22;28703;44.412;11.918;2023-07-31T10:10:36;30.20;95.00
39315;DHT22;28703;44.412;11.918;2023-07-31T10:13:02;30.30;95.00
39315;DHT22;28703;44.412;11.918;2023-07-31T10:15:30;30.40;95.10
39315;DHT22;28703;44.412;11.918;2023-07-31T10:17:56;30.40;94.90
39315;DHT22;28703;44.412;11.918;2023-07-31T10:20:23;30.50;94.80
39315;DHT22;28703;44.412;11.918;2023-07-31T10:22:51;30.60;94.80
39315;DHT22;28703;44.412;11.918;2023-07-31T10:25:18;30.70;94.60
39315;DHT22;28703;44.412;11.918;2023-07-31T10:27:47;30.70;94.30
39315;DHT22;28703;44.412;11.918;2023-07-31T10:30:16;30.80;94.10
39315;DHT22;28703;44.412;11.918;2023-07-31T10:32:44;30.90;93.90
39315;DHT22;28703;44.412;11.918;2023-07-31T10:35:10;30.90;93.70
39315;DHT22;28703;44.412;11.918;2023-07-31T10:37:41;31.00;93.70
39315;DHT22;28703;44.412;11.918;2023-07-31T10:40:16;31.00;93.60
39315;DHT22;28703;44.412;11.918;2023-07-31T10:45:13;31.10;93.60
39315;DHT22;28703;44.412;11.918;2023-07-31T10:47:45;31.20;93.50
39315;DHT22;28703;44.412;11.918;2023-07-31T10:50:20;31.20;93.40
39315;DHT22;28703;44.412;11.918;2023-07-31T10:52:54;31.30;93.30
39315;DHT22;28703;44.412;11.918;2023-07-31T10:55:30;31.30;93.20
39315;DHT22;28703;44.412;11.918;2023-07-31T10:58:05;31.40;92.90
39315;DHT22;28703;44.412;11.918;2023-07-31T11:00:32;31.50;92.80
39315;DHT22;28703;44.412;11.918;2023-07-31T11:03:00;31.50;92.90
39315;DHT22;28703;44.412;11.918;2023-07-31T11:08:14;31.70;92.20
39315;DHT22;28703;44.412;11.918;2023-07-31T11:10:45;31.70;92.30
39315;DHT22;28703;44.412;11.918;2023-07-31T11:13:12;31.70;92.00
39315;DHT22;28703;44.412;11.918;2023-07-31T11:15:38;31.80;91.90
39315;DHT22;28703;44.412;11.918;2023-07-31T11:18:04;31.70;91.90
39315;DHT22;28703;44.412;11.918;2023-07-31T11:20:35;31.70;91.90
39315;DHT22;28703;44.412;11.918;2023-07-31T11:23:10;31.70;91.90
39315;DHT22;28703;44.412;11.918;2023-07-31T11:25:38;31.70;91.70
39315;DHT22;28703;44.412;11.918;2023-07-31T11:28:08;31.80;92.00
39315;DHT22;28703;44.412;11.918;2023-07-31T11:30:35;31.90;92.00
39315;DHT22;28703;44.412;11.918;2023-07-31T11:33:02;31.90;92.00
39315;DHT22;28703;44.412;11.918;2023-07-31T11:35:31;32.00;91.90
39315;DHT22;28703;44.412;11.918;2023-07-31T11:37:57;32.00;91.70
39315;DHT22;28703;44.412;11.918;2023-07-31T11:40:23;32.00;91.50
39315;DHT22;28703;44.412;11.918;2023-07-31T11:42:57;32.00;91.40
39315;DHT22;28703;44.412;11.918;2023-07-31T11:45:27;32.00;91.20
39315;DHT22;28703;44.412;11.918;2023-07-31T11:47:56;32.00;91.10
39315;DHT22;28703;44.412;11.918;2023-07-31T11:50:23;32.00;91.10
39315;DHT22;28703;44.412;11.918;2023-07-31T11:53:00;32.00;91.00
39315;DHT22;28703;44.412;11.918;2023-07-31T11:55:26;32.10;91.00
39315;DHT22;28703;44.412;11.918;2023-07-31T11:57:54;32.00;91.00
39315;DHT22;28703;44.412;11.918;2023-07-31T12:00:21;32.00;91.00
39315;DHT22;28703;44.412;11.918;2023-07-31T12:02:47;32.10;91.10
39315;DHT22;28703;44.412;11.918;2023-07-31T12:05:15;32.20;91.10
39315;DHT22;28703;44.412;11.918;2023-07-31T12:10:21;32.20;91.00
39315;DHT22;28703;44.412;11.918;2023-07-31T12:13:02;32.20;91.00
39315;DHT22;28703;44.412;11.918;2023-07-31T12:15:35;32.20;90.80
39315;DHT22;28703;44.412;11.918;2023-07-31T12:18:10;32.20;90.20
39315;DHT22;28703;44.412;11.918;2023-07-31T12:20:47;32.10;90.60
39315;DHT22;28703;44.412;11.918;2023-07-31T12:23:19;32.10;90.80
39315;DHT22;28703;44.412;11.918;2023-07-31T12:26:07;32.20;90.80
39315;DHT22;28703;44.412;11.918;2023-07-31T12:28:37;32.30;90.90
39315;DHT22;28703;44.412;11.918;2023-07-31T12:31:04;32.40;91.10
39315;DHT22;28703;44.412;11.918;2023-07-31T12:33:32;32.50;91.10
39315;DHT22;28703;44.412;11.918;2023-07-31T12:36:03;32.70;91.10
39315;DHT22;28703;44.412;11.918;2023-07-31T12:38:30;32.90;91.10
39315;DHT22;28703;44.412;11.918;2023-07-31T12:40:56;33.00;91.00
39315;DHT22;28703;44.412;11.918;2023-07-31T12:43:22;33.10;90.70
39315;DHT22;28703;44.412;11.918;2023-07-31T12:45:48;33.30;90.50
39315;DHT22;28703;44.412;11.918;2023-07-31T12:48:14;33.40;90.30
39315;DHT22;28703;44.412;11.918;2023-07-31T12:50:40;33.50;90.30
39315;DHT22;28703;44.412;11.918;2023-07-31T12:53:06;33.70;90.20
39315;DHT22;28703;44.412;11.918;2023-07-31T12:55:33;33.80;90.10
39315;DHT22;28703;44.412;11.918;2023-07-31T12:58:08;34.00;90.00
39315;DHT22;28703;44.412;11.918;2023-07-31T13:00:35;34.10;89.10
39315;DHT22;28703;44.412;11.918;2023-07-31T13:03:01;34.30;89.50
39315;DHT22;28703;44.412;11.918;2023-07-31T13:05:28;34.40;88.70
39315;DHT22;28703;44.412;11.918;2023-07-31T13:07:54;34.50;88.20
39315;DHT22;28703;44.412;11.918;2023-07-31T13:10:21;34.50;87.80
39315;DHT22;28703;44.412;11.918;2023-07-31T13:12:47;34.50;87.50
39315;DHT22;28703;44.412;11.918;2023-07-31T13:15:13;34.50;87.10
39315;DHT22;28703;44.412;11.918;2023-07-31T13:17:39;34.60;86.90
39315;DHT22;28703;44.412;11.918;2023-07-31T13:20:05;34.70;86.80
39315;DHT22;28703;44.412;11.918;2023-07-31T13:22:31;34.60;87.00
39315;DHT22;28703;44.412;11.918;2023-07-31T13:24:57;34.60;86.60
39315;DHT22;28703;44.412;11.918;2023-07-31T13:27:23;34.50;86.50
39315;DHT22;28703;44.412;11.918;2023-07-31T13:29:50;34.40;86.40
39315;DHT22;28703;44.412;11.918;2023-07-31T13:34:56;34.20;86.20
39315;DHT22;28703;44.412;11.918;2023-07-31T13:37:22;34.00;86.50
39315;DHT22;28703;44.412;11.918;2023-07-31T13:39:48;33.90;86.60
39315;DHT22;28703;44.412;11.918;2023-07-31T13:42:14;33.90;86.80
39315;DHT22;28703;44.412;11.918;2023-07-31T13:44:41;34.00;87.20
39315;DHT22;28703;44.412;11.918;2023-07-31T13:47:09;34.00;87.10
39315;DHT22;28703;44.412;11.918;2023-07-31T13:49:35;34.10;87.10
39315;DHT22;28703;44.412;11.918;2023-07-31T13:52:02;34.20;87.10
39315;DHT22;28703;44.412;11.918;2023-07-31T13:54:28;34.40;87.40
39315;DHT22;28703;44.412;11.918;2023-07-31T13:56:54;34.50;87.80
39315;DHT22;28703;44.412;11.918;2023-07-31T13:59:20;34.60;87.20
39315;DHT22;28703;44.412;11.918;2023-07-31T14:01:47;34.70;87.20
39315;DHT22;28703;44.412;11.918;2023-07-31T14:04:13;34.90;87.40
39315;DHT22;28703;44.412;11.918;2023-07-31T14:06:39;35.00;87.40
39315;DHT22;28703;44.412;11.918;2023-07-31T14:09:05;35.10;86.90
39315;DHT22;28703;44.412;11.918;2023-07-31T14:11:32;35.20;87.00
39315;DHT22;28703;44.412;11.918;2023-07-31T14:13:58;35.40;86.80
39315;DHT22;28703;44.412;11.918;2023-07-31T14:16:24;35.50;86.60
39315;DHT22;28703;44.412;11.918;2023-07-31T14:18:50;35.60;85.90
39315;DHT22;28703;44.412;11.918;2023-07-31T14:21:16;35.70;85.20
39315;DHT22;28703;44.412;11.918;2023-07-31T14:23:42;35.70;84.60
39315;DHT22;28703;44.412;11.918;2023-07-31T14:26:08;35.80;84.50
39315;DHT22;28703;44.412;11.918;2023-07-31T14:28:34;35.90;84.40
39315;DHT22;28703;44.412;11.918;2023-07-31T14:30:59;36.00;84.20
39315;DHT22;28703;44.412;11.918;2023-07-31T14:33:25;36.10;83.90
39315;DHT22;28703;44.412;11.918;2023-07-31T14:35:51;36.10;83.80
39315;DHT22;28703;44.412;11.918;2023-07-31T14:38:17;36.20;83.70
39315;DHT22;28703;44.412;11.918;2023-07-31T14:40:43;36.20;84.00
39315;DHT22;28703;44.412;11.918;2023-07-31T14:43:09;36.30;84.20
39315;DHT22;28703;44.412;11.918;2023-07-31T14:45:35;36.40;84.10
39315;DHT22;28703;44.412;11.918;2023-07-31T14:48:01;36.50;83.60
39315;DHT22;28703;44.412;11.918;2023-07-31T14:50:28;36.60;83.40
39315;DHT22;28703;44.412;11.918;2023-07-31T14:52:54;36.70;83.20
39315;DHT22;28703;44.412;11.918;2023-07-31T14:55:20;36.70;82.80
39315;DHT22;28703;44.412;11.918;2023-07-31T14:57:46;36.90;82.80
39315;DHT22;28703;44.412;11.918;2023-07-31T15:00:12;36.80;82.50
39315;DHT22;28703;44.412;11.918;2023-07-31T15:02:39;36.90;82.50
39315;DHT22;28703;44.412;11.918;2023-07-31T15:05:06;36.80;82.50
39315;DHT22;28703;44.412;11.918;2023-07-31T15:07:33;36.90;82.20
39315;DHT22;28703;44.412;11.918;2023-07-31T15:09:59;37.00;82.30
39315;DHT22;28703;44.412;11.918;2023-07-31T15:12:26;37.10;82.30
39315;DHT22;28703;44.412;11.918;2023-07-31T15:14:52;37.10;81.90
39315;DHT22;28703;44.412;11.918;2023-07-31T15:17:18;37.10;81.90
39315;DHT22;28703;44.412;11.918;2023-07-31T15:19:44;37.20;81.80
39315;DHT22;28703;44.412;11.918;2023-07-31T15:22:10;37.30;81.70
39315;DHT22;28703;44.412;11.918;2023-07-31T15:24:36;37.40;81.20
39315;DHT22;28703;44.412;11.918;2023-07-31T15:27:02;37.40;81.00
39315;DHT22;28703;44.412;11.918;2023-07-31T15:29:29;37.40;80.80
39315;DHT22;28703;44.412;11.918;2023-07-31T15:31:55;37.60;80.40